createdAt,value
2018-04-22T00:01:11.839Z,12.50
2018-04-22T00:03:40.142Z,12.50
2018-04-22T00:06:07.674Z,12.50
2018-04-22T00:08:35.950Z,12.60
2018-04-22T00:11:03.451Z,12.40
2018-04-22T00:13:30.989Z,12.50
2018-04-22T00:15:58.495Z,12.40
2018-04-22T00:18:26.024Z,12.40
2018-04-22T00:20:53.532Z,12.40
2018-04-22T00:23:21.051Z,12.40
2018-04-22T00:25:48.562Z,12.40
2018-04-22T00:28:16.099Z,12.40
2018-04-22T00:30:43.614Z,12.30
2018-04-22T00:33:11.175Z,12.30
2018-04-22T00:35:38.683Z,12.20
2018-04-22T00:38:06.209Z,12.10
2018-04-22T00:40:33.719Z,12.00
2018-04-22T00:43:01.246Z,12.00
2018-04-22T00:45:29.528Z,11.80
2018-04-22T00:47:57.053Z,11.80
2018-04-22T00:50:24.559Z,11.70
2018-04-22T00:52:52.094Z,11.80
2018-04-22T00:55:19.805Z,11.80
2018-04-22T00:57:47.334Z,11.80
2018-04-22T01:00:14.851Z,11.70
2018-04-22T01:02:42.386Z,11.70
2018-04-22T01:05:11.175Z,11.70
2018-04-22T01:07:38.699Z,11.70
2018-04-22T01:10:06.203Z,11.70
2018-04-22T01:12:34.505Z,11.80
2018-04-22T01:15:02.012Z,11.80
2018-04-22T01:17:29.548Z,11.80
2018-04-22T01:19:57.070Z,11.90
2018-04-22T01:22:25.374Z,11.80
2018-04-22T01:24:52.883Z,11.90
2018-04-22T01:27:20.418Z,11.90
2018-04-22T01:29:47.927Z,11.90
2018-04-22T01:32:16.223Z,11.90
2018-04-22T01:34:43.734Z,11.90
2018-04-22T01:37:11.267Z,11.90
2018-04-22T01:39:38.773Z,11.80
2018-04-22T01:42:06.302Z,11.80
2018-04-22T01:44:33.809Z,11.70
2018-04-22T01:47:01.319Z,11.80
2018-04-22T01:49:29.623Z,11.70
2018-04-22T01:51:57.132Z,11.70
2018-04-22T01:54:24.667Z,11.70
2018-04-22T01:56:52.167Z,11.60
2018-04-22T01:59:19.720Z,11.50
2018-04-22T02:01:47.233Z,11.50
2018-04-22T02:04:14.755Z,11.50
2018-04-22T02:06:42.267Z,11.40
2018-04-22T02:09:09.794Z,11.40
2018-04-22T02:11:37.299Z,11.50
2018-04-22T02:14:04.831Z,11.50
2018-04-22T02:16:33.107Z,11.50
2018-04-22T02:19:00.635Z,11.40
2018-04-22T02:21:28.159Z,11.50
2018-04-22T02:23:55.692Z,11.50
2018-04-22T02:26:23.491Z,11.50
2018-04-22T02:28:51.022Z,11.50
2018-04-22T02:31:18.535Z,11.30
2018-04-22T02:33:46.637Z,11.40
2018-04-22T02:36:14.152Z,11.50
2018-04-22T02:38:41.680Z,11.50
2018-04-22T02:41:09.190Z,11.50
2018-04-22T02:43:36.770Z,11.40
2018-04-22T02:46:04.243Z,11.40
2018-04-22T02:48:32.547Z,11.40
2018-04-22T02:51:00.058Z,11.40
2018-04-22T02:53:27.597Z,11.40
2018-04-22T02:55:55.341Z,11.50
2018-04-22T02:58:22.869Z,11.50
2018-04-22T03:00:51.152Z,11.50
2018-04-22T03:03:19.439Z,11.50
2018-04-22T03:05:46.939Z,11.40
2018-04-22T03:08:14.467Z,11.50
2018-04-22T03:10:41.978Z,11.40
2018-04-22T03:13:09.518Z,11.40
2018-04-22T03:15:37.026Z,11.40
2018-04-22T03:18:04.554Z,11.40
2018-04-22T03:20:32.074Z,11.30
2018-04-22T03:22:59.589Z,11.30
2018-04-22T03:25:27.119Z,11.30
2018-04-22T03:27:54.653Z,11.30
2018-04-22T03:30:22.154Z,11.30
2018-04-22T03:32:49.667Z,11.30
2018-04-22T03:35:17.503Z,11.30
2018-04-22T03:37:45.766Z,11.20
2018-04-22T03:40:13.290Z,11.20
2018-04-22T03:42:40.794Z,11.20
2018-04-22T03:45:08.319Z,11.10
2018-04-22T03:47:35.857Z,11.20
2018-04-22T03:50:03.402Z,11.20
2018-04-22T03:52:30.920Z,11.20
2018-04-22T03:54:58.438Z,11.20
2018-04-22T03:57:25.940Z,11.20
2018-04-22T03:59:53.476Z,11.20
2018-04-22T04:02:20.987Z,11.10
2018-04-22T04:04:48.511Z,11.10
2018-04-22T04:07:16.019Z,11.10
2018-04-22T04:09:43.541Z,11.10
2018-04-22T04:12:11.042Z,11.10
2018-04-22T04:14:38.568Z,11.10
2018-04-22T04:17:06.847Z,11.00
2018-04-22T04:19:47.303Z,10.90
2018-04-22T04:22:26.884Z,10.80
2018-04-22T04:25:06.092Z,10.80
2018-04-22T04:27:50.035Z,10.80
2018-04-22T04:30:17.571Z,10.80
2018-04-22T04:32:45.350Z,10.80
2018-04-22T04:35:12.846Z,10.90
2018-04-22T04:37:40.354Z,11.00
2018-04-22T04:40:07.879Z,11.00
2018-04-22T04:42:35.395Z,11.10
2018-04-22T04:45:02.915Z,11.30
2018-04-22T04:47:30.560Z,11.30
2018-04-22T04:49:58.085Z,11.50
2018-04-22T04:52:26.371Z,11.50
2018-04-22T04:54:53.897Z,11.50
2018-04-22T04:57:21.403Z,11.60
2018-04-22T04:59:48.940Z,11.60
2018-04-22T05:02:17.210Z,11.80
2018-04-22T05:04:44.741Z,11.80
2018-04-22T05:07:12.256Z,11.80
2018-04-22T05:09:39.785Z,11.90
2018-04-22T05:12:07.296Z,12.00
2018-04-22T05:14:34.823Z,12.00
2018-04-22T05:17:02.338Z,12.00
2018-04-22T05:19:29.861Z,12.00
2018-04-22T05:21:57.376Z,12.00
2018-04-22T05:24:24.905Z,12.10
2018-04-22T05:26:52.410Z,12.10
2018-04-22T05:29:19.946Z,12.10
2018-04-22T05:31:47.462Z,12.20
2018-04-22T05:34:14.991Z,12.20
2018-04-22T05:36:43.258Z,12.40
2018-04-22T05:39:10.763Z,12.40
2018-04-22T05:41:38.286Z,12.60
2018-04-22T05:44:06.558Z,12.80
2018-04-22T05:46:34.078Z,12.80
2018-04-22T05:49:01.584Z,12.90
2018-04-22T05:51:29.974Z,13.10
2018-04-22T05:53:57.487Z,13.20
2018-04-22T05:56:25.006Z,13.40
2018-04-22T05:58:52.522Z,13.50
2018-04-22T06:01:20.055Z,13.70
2018-04-22T06:03:47.553Z,14.10
2018-04-22T06:06:15.078Z,14.40
2018-04-22T06:08:42.594Z,14.80
2018-04-22T06:11:10.141Z,15.10
2018-04-22T06:13:37.655Z,15.50
2018-04-22T06:16:05.186Z,15.60
2018-04-22T06:18:32.690Z,15.70
2018-04-22T06:21:00.211Z,15.90
2018-04-22T06:23:27.715Z,16.10
2018-04-22T06:25:55.245Z,16.20
2018-04-22T06:28:22.749Z,16.20
2018-04-22T06:30:50.272Z,16.30
2018-04-22T06:33:18.214Z,16.40
2018-04-22T06:35:45.753Z,16.50
2018-04-22T06:38:13.267Z,16.70
2018-04-22T06:40:40.803Z,16.70
2018-04-22T06:43:08.315Z,16.70
2018-04-22T06:45:35.847Z,17.10
2018-04-22T06:48:03.702Z,17.60
2018-04-22T06:50:31.238Z,18.10
2018-04-22T06:52:58.761Z,18.20
2018-04-22T06:55:26.296Z,18.50
2018-04-22T06:57:54.574Z,18.50
2018-04-22T07:00:22.115Z,18.50
2018-04-22T07:02:50.238Z,18.20
2018-04-22T07:05:17.775Z,17.80
2018-04-22T07:07:45.283Z,17.50
2018-04-22T07:10:12.811Z,17.20
2018-04-22T07:12:40.322Z,17.10
2018-04-22T07:15:07.847Z,17.40
2018-04-22T07:17:36.148Z,18.30
2018-04-22T07:20:03.655Z,18.30
2018-04-22T07:22:31.191Z,18.50
2018-04-22T07:24:58.706Z,18.70
2018-04-22T07:27:26.998Z,19.00
2018-04-22T07:29:54.510Z,19.00
2018-04-22T07:32:22.051Z,19.20
2018-04-22T07:34:49.562Z,19.30
2018-04-22T07:37:17.854Z,19.30
2018-04-22T07:39:45.439Z,19.20
2018-04-22T07:42:12.973Z,19.30
2018-04-22T07:44:41.254Z,19.30
2018-04-22T07:47:08.794Z,19.30
2018-04-22T07:49:36.338Z,19.50
2018-04-22T07:52:04.006Z,19.60
2018-04-22T07:54:31.519Z,19.80
2018-04-22T07:56:59.051Z,19.50
2018-04-22T07:59:26.582Z,19.50
2018-04-22T08:01:54.465Z,19.70
2018-04-22T08:04:21.978Z,19.80
2018-04-22T08:06:49.573Z,20.00
2018-04-22T08:09:17.038Z,20.10
2018-04-22T08:11:44.587Z,20.40
2018-04-22T08:14:12.110Z,20.50
2018-04-22T08:16:39.650Z,20.50
2018-04-22T08:19:07.162Z,20.40
2018-04-22T08:21:34.699Z,20.60
2018-04-22T08:24:02.214Z,20.60
2018-04-22T08:26:29.759Z,20.60
2018-04-22T08:28:57.271Z,20.90
2018-04-22T08:31:24.801Z,21.00
2018-04-22T08:33:52.329Z,21.20
2018-04-22T08:36:19.863Z,21.20
2018-04-22T08:38:47.383Z,21.30
2018-04-22T08:41:14.921Z,21.30
2018-04-22T08:43:42.430Z,21.50
2018-04-22T08:46:09.966Z,21.60
2018-04-22T08:48:37.486Z,21.70
2018-04-22T08:51:04.999Z,21.90
2018-04-22T08:53:32.536Z,21.90
2018-04-22T08:56:00.043Z,22.10
2018-04-22T08:58:27.579Z,22.10
2018-04-22T09:00:55.087Z,22.30
2018-04-22T09:03:22.617Z,22.30
2018-04-22T09:05:50.135Z,22.40
2018-04-22T09:08:18.435Z,22.70
2018-04-22T09:10:45.967Z,22.70
2018-04-22T09:13:13.498Z,22.70
2018-04-22T09:15:41.011Z,22.80
2018-04-22T09:18:08.543Z,22.90
2018-04-22T09:20:36.096Z,23.10
2018-04-22T09:23:03.980Z,23.00
2018-04-22T09:25:32.258Z,23.20
2018-04-22T09:27:59.812Z,23.30
2018-04-22T09:30:28.106Z,23.40
2018-04-22T09:32:55.651Z,23.40
2018-04-22T09:35:23.163Z,23.60
2018-04-22T09:37:50.699Z,23.70
2018-04-22T09:40:18.215Z,23.80
2018-04-22T09:42:45.755Z,23.80
2018-04-22T09:45:13.270Z,23.90
2018-04-22T09:47:40.798Z,24.00
2018-04-22T09:50:08.320Z,23.90
2018-04-22T09:52:36.688Z,24.20
2018-04-22T09:55:04.194Z,24.30
2018-04-22T09:57:31.718Z,24.30
2018-04-22T09:59:59.259Z,24.40
2018-04-22T10:02:32.599Z,24.60
2018-04-22T10:05:05.695Z,24.60
2018-04-22T10:07:33.219Z,24.60
2018-04-22T10:10:00.733Z,24.60
2018-04-22T10:12:29.029Z,24.40
2018-04-22T10:14:56.546Z,24.40
2018-04-22T10:17:24.078Z,24.60
2018-04-22T10:19:51.593Z,24.70
2018-04-22T10:22:19.124Z,24.90
2018-04-22T10:24:46.639Z,24.90
2018-04-22T10:27:14.170Z,25.00
2018-04-22T10:29:42.753Z,25.00
2018-04-22T10:32:10.287Z,25.10
2018-04-22T10:34:37.796Z,25.10
2018-04-22T10:37:05.322Z,25.10
2018-04-22T10:39:32.858Z,25.10
2018-04-22T10:42:01.415Z,25.20
2018-04-22T10:44:29.634Z,25.30
2018-04-22T10:46:57.147Z,25.30
2018-04-22T10:49:24.678Z,25.30
2018-04-22T10:51:52.193Z,25.40
2018-04-22T10:54:19.723Z,25.30
2018-04-22T10:56:47.255Z,25.40
2018-04-22T10:59:15.559Z,25.40
2018-04-22T11:01:43.111Z,25.30
2018-04-22T11:04:10.654Z,25.40
2018-04-22T11:06:38.936Z,25.60
2018-04-22T11:09:06.473Z,25.50
2018-04-22T11:11:33.986Z,25.50
2018-04-22T11:14:01.531Z,25.50
2018-04-22T11:16:29.051Z,25.70
2018-04-22T11:18:56.838Z,25.80
2018-04-22T11:21:24.350Z,25.80
2018-04-22T11:23:51.907Z,25.70
2018-04-22T11:26:19.423Z,25.70
2018-04-22T11:28:46.962Z,25.80
2018-04-22T11:31:14.483Z,25.70
2018-04-22T11:33:42.023Z,25.70
2018-04-22T11:36:09.540Z,25.60
2018-04-22T11:38:37.082Z,25.50
2018-04-22T11:41:04.604Z,25.40
2018-04-22T11:43:32.145Z,25.40
2018-04-22T11:45:59.670Z,25.50
2018-04-22T11:48:27.204Z,25.50
2018-04-22T11:50:54.710Z,25.80
2018-04-22T11:53:22.247Z,26.10
2018-04-22T11:55:49.765Z,26.20
2018-04-22T11:58:17.302Z,26.30
2018-04-22T12:00:45.590Z,26.30
2018-04-22T12:03:13.143Z,26.30
2018-04-22T12:05:40.655Z,26.20
2018-04-22T12:08:08.194Z,26.00
2018-04-22T12:10:35.712Z,25.90
2018-04-22T12:13:03.242Z,25.80
2018-04-22T12:15:30.755Z,25.80
2018-04-22T12:17:58.266Z,25.80
2018-04-22T12:20:25.797Z,25.90
2018-04-22T12:22:53.306Z,26.10
2018-04-22T12:25:20.835Z,26.10
2018-04-22T12:27:48.344Z,26.10
2018-04-22T12:30:15.871Z,26.10
2018-04-22T12:32:43.383Z,26.20
2018-04-22T12:35:10.914Z,26.20
2018-04-22T12:37:38.429Z,26.30
2018-04-22T12:40:05.962Z,26.40
2018-04-22T12:42:33.483Z,26.50
2018-04-22T12:45:01.492Z,26.50
2018-04-22T12:47:29.004Z,26.50
2018-04-22T12:49:56.541Z,26.60
2018-04-22T12:52:24.052Z,26.50
2018-04-22T12:54:51.583Z,26.40
2018-04-22T12:57:19.094Z,26.30
2018-04-22T12:59:46.627Z,26.20
2018-04-22T13:02:14.134Z,26.10
2018-04-22T13:04:41.658Z,26.10
2018-04-22T13:07:09.163Z,26.20
2018-04-22T13:09:36.694Z,26.10
2018-04-22T13:12:04.206Z,26.00
2018-04-22T13:14:32.512Z,26.00
2018-04-22T13:17:00.045Z,26.00
2018-04-22T13:19:28.343Z,26.10
2018-04-22T13:21:55.856Z,26.10
2018-04-22T13:24:23.384Z,26.20
2018-04-22T13:26:50.898Z,26.20
2018-04-22T13:29:18.422Z,26.20
2018-04-22T13:31:46.264Z,26.20
2018-04-22T13:34:13.790Z,26.00
2018-04-22T13:36:42.059Z,26.00
2018-04-22T13:39:09.589Z,26.00
2018-04-22T13:41:37.090Z,26.10
2018-04-22T13:44:04.638Z,26.00
2018-04-22T13:46:32.150Z,25.90
2018-04-22T13:48:59.679Z,25.60
2018-04-22T13:51:27.190Z,25.40
2018-04-22T13:53:54.695Z,25.10
2018-04-22T13:56:22.215Z,25.00
2018-04-22T13:58:49.798Z,24.80
2018-04-22T14:01:17.330Z,24.90
2018-04-22T14:03:44.843Z,24.90
2018-04-22T14:06:13.135Z,25.00
2018-04-22T14:08:40.647Z,24.90
2018-04-22T14:11:08.183Z,25.00
2018-04-22T14:13:35.695Z,24.90
2018-04-22T14:16:03.995Z,24.60
2018-04-22T14:18:31.507Z,24.60
2018-04-22T14:20:59.039Z,24.30
2018-04-22T14:23:26.554Z,24.00
2018-04-22T14:25:54.844Z,23.70
2018-04-22T14:28:22.356Z,23.70
2018-04-22T14:30:49.887Z,23.80
2018-04-22T14:33:17.403Z,24.10
2018-04-22T14:35:45.689Z,24.60
2018-04-22T14:38:13.197Z,24.60
2018-04-22T14:40:40.722Z,24.60
2018-04-22T14:43:08.227Z,24.60
2018-04-22T14:45:47.547Z,24.90
2018-04-22T14:48:15.051Z,25.10
2018-04-22T14:50:43.368Z,25.10
2018-04-22T14:53:10.867Z,25.10
2018-04-22T14:55:38.385Z,24.90
2018-04-22T14:58:05.891Z,24.60
2018-04-22T15:00:33.424Z,24.60
2018-04-22T15:03:00.932Z,24.80
2018-04-22T15:05:28.458Z,24.90
2018-04-22T15:07:55.971Z,24.90
2018-04-22T15:10:24.142Z,24.70
2018-04-22T15:12:51.654Z,24.50
2018-04-22T15:15:19.820Z,24.40
2018-04-22T15:17:47.336Z,24.40
2018-04-22T15:20:14.875Z,24.40
2018-04-22T15:22:42.378Z,24.30
2018-04-22T15:25:09.909Z,24.30
2018-04-22T15:27:38.178Z,24.30
2018-04-22T15:30:05.715Z,24.30
2018-04-22T15:32:33.234Z,24.20
2018-04-22T15:35:00.755Z,24.10
2018-04-22T15:37:29.031Z,24.00
2018-04-22T15:39:56.543Z,23.90
2018-04-22T15:42:24.085Z,23.70
2018-04-22T15:44:51.599Z,23.60
2018-04-22T15:47:19.120Z,23.40
2018-04-22T15:49:46.627Z,23.50
2018-04-22T15:52:14.149Z,23.50
2018-04-22T15:54:42.426Z,23.40
2018-04-22T15:57:09.959Z,23.40
2018-04-22T15:59:37.458Z,23.40
2018-04-22T16:02:05.023Z,23.30
2018-04-22T16:04:32.527Z,23.10
2018-04-22T16:07:00.060Z,23.00
2018-04-22T16:09:27.572Z,22.80
2018-04-22T16:11:55.098Z,22.80
2018-04-22T16:14:22.685Z,22.80
2018-04-22T16:16:50.167Z,22.80
2018-04-22T16:19:17.717Z,22.70
2018-04-22T16:21:45.250Z,22.70
2018-04-22T16:24:12.763Z,22.70
2018-04-22T16:26:40.290Z,22.60
2018-04-22T16:29:08.213Z,22.50
2018-04-22T16:31:35.751Z,22.40
2018-04-22T16:34:03.264Z,22.30
2018-04-22T16:36:30.792Z,22.20
2018-04-22T16:38:59.070Z,22.00
2018-04-22T16:41:26.628Z,22.00
2018-04-22T16:43:54.126Z,21.90
2018-04-22T16:46:21.651Z,21.90
2018-04-22T16:51:47.807Z,21.70
2018-04-22T16:54:16.091Z,21.50
2018-04-22T16:56:43.635Z,21.50
2018-04-22T16:59:11.903Z,21.40
2018-04-22T17:01:39.422Z,21.40
2018-04-22T17:04:06.926Z,21.40
2018-04-22T17:06:35.224Z,21.20
2018-04-22T17:09:03.495Z,21.10
2018-04-22T17:11:31.786Z,21.10
2018-04-22T17:13:59.299Z,21.00
2018-04-22T17:16:26.834Z,20.90
2018-04-22T17:18:54.342Z,20.80
2018-04-22T17:21:21.881Z,20.80
2018-04-22T17:23:49.387Z,20.60
2018-04-22T17:26:16.909Z,20.70
2018-04-22T17:28:44.409Z,20.60
2018-04-22T17:31:11.944Z,20.60
2018-04-22T17:33:39.703Z,20.50
2018-04-22T17:36:07.978Z,20.40
2018-04-22T17:38:35.498Z,20.50
2018-04-22T17:41:03.016Z,20.40
2018-04-22T17:43:30.543Z,20.30
2018-04-22T17:45:58.047Z,20.30
2018-04-22T17:48:25.580Z,20.20
2018-04-22T17:50:53.091Z,20.10
2018-04-22T17:53:20.615Z,20.00
2018-04-22T17:55:48.126Z,20.00
2018-04-22T17:58:15.660Z,19.80
2018-04-22T18:00:43.166Z,19.80
2018-04-22T18:03:10.694Z,19.70
2018-04-22T18:05:38.199Z,19.70
2018-04-22T18:08:06.491Z,19.60
2018-04-22T18:10:34.000Z,19.60
2018-04-22T18:13:01.532Z,19.60
2018-04-22T18:15:29.054Z,19.60
2018-04-22T18:17:57.475Z,19.50
2018-04-22T18:20:25.002Z,19.50
2018-04-22T18:22:53.299Z,19.50
2018-04-22T18:25:20.811Z,19.50
2018-04-22T18:27:48.399Z,19.50
2018-04-22T18:30:15.872Z,19.50
2018-04-22T18:32:43.407Z,19.40
2018-04-22T18:35:10.920Z,19.40
2018-04-22T18:37:38.456Z,19.20
2018-04-22T18:40:05.977Z,19.30
2018-04-22T18:42:33.499Z,19.20
2018-04-22T18:45:01.001Z,19.20
2018-04-22T18:47:28.522Z,19.30
2018-04-22T18:49:56.030Z,19.30
2018-04-22T18:52:24.327Z,19.30
2018-04-22T18:54:51.852Z,19.20
2018-04-22T18:57:19.390Z,18.90
2018-04-22T18:59:46.899Z,18.50
2018-04-22T19:02:15.471Z,17.90
2018-04-22T19:04:42.991Z,17.90
2018-04-22T19:07:10.523Z,17.70
2018-04-22T19:09:38.263Z,17.60
2018-04-22T19:12:06.579Z,17.40
2018-04-22T19:14:34.110Z,17.30
2018-04-22T19:17:01.627Z,17.10
2018-04-22T19:19:29.162Z,17.00
2018-04-22T19:21:56.677Z,16.80
2018-04-22T19:24:24.212Z,16.70
2018-04-22T19:26:51.724Z,16.60
2018-04-22T19:29:19.258Z,16.60
2018-04-22T19:31:46.775Z,16.60
2018-04-22T19:34:14.308Z,16.50
2018-04-22T19:36:41.818Z,16.50
2018-04-22T19:39:09.342Z,16.50
2018-04-22T19:41:36.859Z,16.50
2018-04-22T19:44:04.390Z,16.50
2018-04-22T19:46:31.901Z,16.50
2018-04-22T19:48:59.431Z,16.40
2018-04-22T19:51:26.943Z,16.40
2018-04-22T19:53:54.485Z,16.40
2018-04-22T19:56:22.006Z,16.30
2018-04-22T19:58:49.538Z,16.30
2018-04-22T20:01:17.051Z,16.30
2018-04-22T20:03:44.582Z,16.30
2018-04-22T20:06:12.246Z,16.20
2018-04-22T20:08:39.795Z,16.20
2018-04-22T20:11:07.312Z,16.20
2018-04-22T20:13:34.858Z,16.10
2018-04-22T20:16:02.376Z,16.00
2018-04-22T20:18:29.932Z,16.00
2018-04-22T20:20:57.452Z,15.90
2018-04-22T20:23:24.990Z,15.90
2018-04-22T20:25:52.514Z,15.90
2018-04-22T20:28:20.047Z,15.80
2018-04-22T20:30:47.570Z,15.80
2018-04-22T20:33:15.107Z,15.80
2018-04-22T20:35:43.395Z,15.80
2018-04-22T20:38:10.947Z,15.70
2018-04-22T20:40:38.475Z,15.70
2018-04-22T20:43:06.010Z,15.70
2018-04-22T20:45:33.522Z,15.60
2018-04-22T20:48:01.053Z,15.60
2018-04-22T20:50:28.567Z,15.60
2018-04-22T20:52:56.092Z,15.50
2018-04-22T20:55:23.624Z,15.50
2018-04-22T20:57:51.139Z,15.50
2018-04-22T21:00:18.688Z,15.40
2018-04-22T21:02:46.966Z,15.40
2018-04-22T21:05:15.269Z,15.30
2018-04-22T21:07:42.782Z,15.40
2018-04-22T21:10:10.331Z,15.40
2018-04-22T21:12:37.846Z,15.40
2018-04-22T21:15:05.377Z,15.30
2018-04-22T21:17:32.890Z,15.40
2018-04-22T21:20:00.423Z,15.30
2018-04-22T21:22:27.942Z,15.40
2018-04-22T21:24:55.472Z,15.40
2018-04-22T21:27:23.014Z,15.40
2018-04-22T21:29:50.542Z,15.30
2018-04-22T21:32:18.827Z,15.30
2018-04-22T21:34:46.360Z,15.30
2018-04-22T21:37:13.873Z,15.30
2018-04-22T21:39:41.402Z,15.30
2018-04-22T21:42:09.691Z,15.30
2018-04-22T21:44:37.226Z,15.30
2018-04-22T21:47:04.751Z,15.30
2018-04-22T21:49:32.282Z,15.30
2018-04-22T21:51:59.798Z,15.30
2018-04-22T21:54:27.333Z,15.30
2018-04-22T21:56:54.844Z,15.30
2018-04-22T21:59:22.395Z,15.30
2018-04-22T22:01:49.909Z,15.30
2018-04-22T22:04:17.442Z,15.20
2018-04-22T22:06:44.970Z,15.10
2018-04-22T22:09:12.499Z,15.10
2018-04-22T22:11:40.025Z,15.10
2018-04-22T22:14:07.562Z,15.10
2018-04-22T22:16:36.228Z,15.00
2018-04-22T22:19:03.759Z,14.90
2018-04-22T22:21:31.283Z,14.90
2018-04-22T22:23:59.583Z,14.90
2018-04-22T22:26:27.102Z,14.80
2018-04-22T22:28:54.615Z,14.90
2018-04-22T22:31:22.157Z,14.90
2018-04-22T22:33:49.673Z,14.90
2018-04-22T22:36:17.211Z,14.80
2018-04-22T22:38:44.713Z,14.80
2018-04-22T22:41:12.249Z,14.80
2018-04-22T22:43:39.760Z,14.70
2018-04-22T22:46:07.308Z,14.80
2018-04-22T22:48:34.832Z,14.80
2018-04-22T22:51:02.359Z,14.70
2018-04-22T22:53:29.881Z,14.70
2018-04-22T22:55:57.416Z,14.70
2018-04-22T22:58:24.935Z,14.70
2018-04-22T23:00:52.484Z,14.70
2018-04-22T23:03:20.000Z,14.60
2018-04-22T23:05:47.526Z,14.70
2018-04-22T23:08:15.043Z,14.70
2018-04-22T23:10:42.583Z,14.80
2018-04-22T23:13:10.866Z,14.80
2018-04-22T23:15:38.399Z,14.80
2018-04-22T23:18:05.914Z,14.80
2018-04-22T23:20:33.476Z,14.80
2018-04-22T23:23:00.982Z,14.70
2018-04-22T23:25:28.510Z,14.70
2018-04-22T23:27:56.023Z,14.60
2018-04-22T23:30:23.565Z,14.60
2018-04-22T23:32:51.090Z,14.60
2018-04-22T23:35:18.639Z,14.60
2018-04-22T23:37:46.147Z,14.60
2018-04-22T23:40:13.688Z,14.50
2018-04-22T23:42:41.202Z,14.50
2018-04-22T23:45:08.735Z,14.50
2018-04-22T23:47:36.246Z,14.50
2018-04-22T23:50:03.783Z,14.50
2018-04-22T23:52:31.302Z,14.50
2018-04-22T23:54:58.834Z,14.60
2018-04-22T23:57:26.362Z,14.70
2018-04-22T23:59:53.906Z,14.70
